createdAt,value
2019-03-04T00:01:38.640Z,7.25
2019-03-04T00:04:27.844Z,7.34
2019-03-04T00:07:22.490Z,7.28
2019-03-04T00:10:01.339Z,7.16
2019-03-04T00:12:32.505Z,6.96
2019-03-04T00:15:05.705Z,6.81
2019-03-04T00:17:38.259Z,6.71
2019-03-04T00:20:09.270Z,6.63
2019-03-04T00:22:40.440Z,6.58
2019-03-04T00:25:12.336Z,6.47
2019-03-04T00:27:43.810Z,6.61
2019-03-04T00:30:14.278Z,6.48
2019-03-04T00:32:45.284Z,6.38
2019-03-04T00:35:16.182Z,6.21
2019-03-04T00:38:02.950Z,6.10
2019-03-04T00:40:57.558Z,6.17
2019-03-04T00:43:48.412Z,6.16
2019-03-04T00:46:55.043Z,6.14
2019-03-04T00:49:34.027Z,5.98
2019-03-04T00:52:08.020Z,5.99
2019-03-04T00:54:40.092Z,5.89
2019-03-04T00:57:11.020Z,5.73
2019-03-04T00:59:42.194Z,5.58
2019-03-04T01:02:20.722Z,5.37
2019-03-04T01:04:52.128Z,5.32
2019-03-04T01:07:23.554Z,5.26
2019-03-04T01:09:54.855Z,5.20
2019-03-04T01:12:26.468Z,5.09
2019-03-04T01:14:57.351Z,5.01
2019-03-04T01:17:29.341Z,5.00
2019-03-04T01:20:16.016Z,4.94
2019-03-04T01:22:47.192Z,4.86
2019-03-04T01:25:18.560Z,4.70
2019-03-04T01:27:49.786Z,4.56
2019-03-04T01:30:23.520Z,4.42
2019-03-04T01:32:54.602Z,4.34
2019-03-04T01:35:25.566Z,4.34
2019-03-04T01:37:56.155Z,4.33
2019-03-04T01:40:29.004Z,4.32
2019-03-04T01:43:00.704Z,4.27
2019-03-04T01:45:31.884Z,4.19
2019-03-04T01:48:11.490Z,4.25
2019-03-04T01:50:42.579Z,4.24
2019-03-04T01:53:28.396Z,4.28
2019-03-04T01:55:59.042Z,4.40
2019-03-04T01:58:33.662Z,4.47
2019-03-04T02:01:04.976Z,4.51
2019-03-04T03:01:53.728Z,4.61
2019-03-04T03:04:24.993Z,4.48
2019-03-04T03:06:56.223Z,4.33
2019-03-04T03:09:27.210Z,4.35
2019-03-04T03:11:58.892Z,4.39
2019-03-04T03:14:30.217Z,4.42
2019-03-04T03:17:01.923Z,4.68
2019-03-04T03:19:32.791Z,4.73
2019-03-04T03:22:04.594Z,5.13
2019-03-04T03:24:35.938Z,5.27
2019-03-04T03:27:06.693Z,5.08
2019-03-04T03:29:37.762Z,5.05
2019-03-04T03:32:09.045Z,5.08
2019-03-04T03:34:41.674Z,5.24
2019-03-04T03:37:19.521Z,5.05
2019-03-04T03:39:50.807Z,4.73
2019-03-04T03:42:21.838Z,4.56
2019-03-04T03:44:53.166Z,4.60
2019-03-04T03:47:25.019Z,4.70
2019-03-04T03:49:56.369Z,4.92
2019-03-04T03:52:27.405Z,5.16
2019-03-04T03:54:58.850Z,5.52
2019-03-04T03:57:30.282Z,5.82
2019-03-04T04:00:00.940Z,5.76
2019-03-04T04:02:32.222Z,5.70
2019-03-04T04:05:03.405Z,5.42
2019-03-04T04:07:34.770Z,5.23
2019-03-04T04:10:06.533Z,4.91
2019-03-04T04:12:37.605Z,4.84
2019-03-04T04:15:09.921Z,4.88
2019-03-04T04:17:41.113Z,4.80
2019-03-04T04:20:14.428Z,4.68
2019-03-04T04:22:45.747Z,4.50
2019-03-04T04:25:16.446Z,4.32
2019-03-04T04:28:05.768Z,4.27
2019-03-04T04:30:37.570Z,4.21
2019-03-04T04:33:08.526Z,4.18
2019-03-04T04:35:40.804Z,4.36
2019-03-04T04:38:13.251Z,4.39
2019-03-04T04:40:44.877Z,4.32
2019-03-04T04:43:16.010Z,4.21
2019-03-04T04:45:46.986Z,4.10
2019-03-04T04:48:21.097Z,4.03
2019-03-04T04:50:52.316Z,3.86
2019-03-04T04:53:23.555Z,3.88
2019-03-04T04:55:54.819Z,3.80
2019-03-04T04:58:25.421Z,3.60
2019-03-04T05:00:56.390Z,3.39
2019-03-04T05:03:27.738Z,3.37
2019-03-04T05:05:59.405Z,3.43
2019-03-04T05:08:30.732Z,3.60
2019-03-04T05:11:02.209Z,3.83
2019-03-04T05:13:35.236Z,3.60
2019-03-04T05:16:06.511Z,3.62
2019-03-04T05:18:38.140Z,3.87
2019-03-04T05:21:08.736Z,4.18
2019-03-04T05:23:41.828Z,4.40
2019-03-04T05:26:13.462Z,4.42
2019-03-04T05:29:00.031Z,4.13
2019-03-04T05:31:31.038Z,4.23
2019-03-04T05:34:02.087Z,4.11
2019-03-04T05:36:33.940Z,4.38
2019-03-04T05:39:06.422Z,4.40
2019-03-04T05:41:36.726Z,4.33
2019-03-04T05:44:08.385Z,4.45
2019-03-04T05:46:39.096Z,4.50
2019-03-04T05:49:10.472Z,4.64
2019-03-04T05:51:41.839Z,4.78
2019-03-04T05:54:13.665Z,4.66
2019-03-04T05:56:44.815Z,4.58
2019-03-04T05:59:19.802Z,4.44
2019-03-04T06:02:09.495Z,4.44
2019-03-04T06:04:41.729Z,4.45
2019-03-04T06:07:31.980Z,4.52
2019-03-04T06:10:03.350Z,4.53
2019-03-04T06:12:34.668Z,4.69
2019-03-04T06:15:06.382Z,4.81
2019-03-04T06:17:37.647Z,4.75
2019-03-04T06:20:12.480Z,4.68
2019-03-04T06:22:43.500Z,4.69
2019-03-04T06:25:17.744Z,4.68
2019-03-04T06:27:48.705Z,4.74
2019-03-04T06:30:21.966Z,4.85
2019-03-04T06:32:54.393Z,5.05
2019-03-04T06:35:25.319Z,5.14
2019-03-04T06:37:56.657Z,5.21
2019-03-04T06:40:28.117Z,5.53
2019-03-04T06:42:59.610Z,5.86
2019-03-04T06:45:31.260Z,6.18
2019-03-04T06:48:02.557Z,6.70
2019-03-04T06:50:57.410Z,7.19
2019-03-04T06:54:30.878Z,8.13
2019-03-04T06:57:27.884Z,9.40
2019-03-04T07:01:03.993Z,9.72
2019-03-04T07:03:45.598Z,11.63
2019-03-04T07:06:16.255Z,12.15
2019-03-04T07:09:22.003Z,13.29
2019-03-04T07:11:58.296Z,13.71
2019-03-04T07:14:33.869Z,13.86
2019-03-04T07:17:13.009Z,13.44
2019-03-04T07:19:44.414Z,13.34
2019-03-04T07:22:24.464Z,13.46
2019-03-04T07:25:05.362Z,13.27
2019-03-04T07:27:36.821Z,13.44
2019-03-04T07:30:10.287Z,12.20
2019-03-04T07:32:41.867Z,11.56
2019-03-04T07:35:12.738Z,10.06
2019-03-04T07:37:44.037Z,9.39
2019-03-04T07:40:16.444Z,8.67
2019-03-04T07:42:47.471Z,8.80
2019-03-04T07:45:18.815Z,8.59
2019-03-04T07:47:50.910Z,8.72
2019-03-04T07:50:21.921Z,8.92
2019-03-04T07:52:58.825Z,9.01
2019-03-04T07:55:30.143Z,9.05
2019-03-04T07:58:19.427Z,8.84
2019-03-04T08:00:51.103Z,8.94
2019-03-04T08:03:22.091Z,8.90
2019-03-04T08:05:53.781Z,9.08
2019-03-04T08:09:30.872Z,9.14
2019-03-04T08:12:57.047Z,9.02
2019-03-04T08:15:40.528Z,9.09
2019-03-04T08:18:11.611Z,9.51
2019-03-04T08:21:02.316Z,10.23
2019-03-04T08:23:33.219Z,11.38
2019-03-04T08:26:05.484Z,12.12
2019-03-04T08:28:37.263Z,13.10
2019-03-04T08:31:09.461Z,13.37
2019-03-04T08:33:40.784Z,13.15
2019-03-04T08:36:11.839Z,12.75
2019-03-04T08:38:43.259Z,12.79
2019-03-04T08:41:14.875Z,12.84
2019-03-04T08:43:48.335Z,12.78
2019-03-04T08:46:20.487Z,12.81
2019-03-04T08:48:55.160Z,12.93
2019-03-04T08:51:25.775Z,12.99
2019-03-04T08:53:57.411Z,13.13
2019-03-04T08:56:28.733Z,13.22
2019-03-04T08:59:00.144Z,13.31
2019-03-04T09:02:41.593Z,13.41
2019-03-04T09:05:12.531Z,13.69
2019-03-04T09:07:43.409Z,13.62
2019-03-04T09:10:26.181Z,14.17
2019-03-04T09:12:57.110Z,14.12
2019-03-04T09:15:53.937Z,14.52
2019-03-04T09:18:24.885Z,14.90
2019-03-04T09:20:55.972Z,14.42
2019-03-04T09:23:27.620Z,14.29
2019-03-04T09:26:30.179Z,14.02
2019-03-04T09:29:01.230Z,13.28
2019-03-04T09:31:38.020Z,12.99
2019-03-04T09:34:09.333Z,12.59
2019-03-04T09:37:23.295Z,12.23
2019-03-04T09:39:56.383Z,11.96
2019-03-04T09:42:28.895Z,11.65
2019-03-04T09:45:03.876Z,11.82
2019-03-04T09:47:35.187Z,12.00
2019-03-04T09:50:08.491Z,12.18
2019-03-04T09:52:42.174Z,12.57
2019-03-04T09:55:14.277Z,12.27
2019-03-04T09:57:45.294Z,11.95
2019-03-04T10:00:40.935Z,11.49
2019-03-04T10:04:09.756Z,10.82
2019-03-04T10:07:12.028Z,10.76
2019-03-04T10:10:32.634Z,11.17
2019-03-04T10:14:04.891Z,10.81
2019-03-04T10:17:36.872Z,10.35
2019-03-04T10:21:21.529Z,9.55
2019-03-04T10:25:09.717Z,8.83
2019-03-04T10:28:54.562Z,8.63
2019-03-04T10:32:29.084Z,8.48
2019-03-04T10:35:49.222Z,8.67
2019-03-04T10:39:27.075Z,8.63
2019-03-04T10:42:58.023Z,8.51
2019-03-04T10:46:09.059Z,8.35
2019-03-04T10:48:40.664Z,8.16
2019-03-04T10:51:11.687Z,8.02
2019-03-04T10:53:42.692Z,8.03
2019-03-04T10:56:14.901Z,8.09
2019-03-04T10:59:08.999Z,8.22
2019-03-04T11:01:40.063Z,8.33
2019-03-04T11:04:33.591Z,8.55
2019-03-04T11:07:09.441Z,8.74
2019-03-04T11:09:40.759Z,8.84
2019-03-04T11:12:15.621Z,9.05
2019-03-04T11:14:47.591Z,8.91
2019-03-04T11:17:19.861Z,8.82
2019-03-04T11:19:51.951Z,8.74
2019-03-04T11:22:23.279Z,8.62
2019-03-04T11:24:54.817Z,8.58
2019-03-04T11:27:26.242Z,8.41
2019-03-04T11:30:17.001Z,8.45
2019-03-04T11:32:47.604Z,8.19
2019-03-04T11:35:18.901Z,8.06
2019-03-04T11:37:50.435Z,8.02
2019-03-04T11:40:28.217Z,8.02
2019-03-04T11:43:42.441Z,8.06
2019-03-04T11:46:14.215Z,8.20
2019-03-04T11:48:58.455Z,8.31
2019-03-04T11:51:29.641Z,8.34
2019-03-04T11:54:01.282Z,8.41
2019-03-04T11:56:32.376Z,8.51
2019-03-04T11:59:03.177Z,8.66
2019-03-04T12:01:39.398Z,8.60
2019-03-04T12:04:13.424Z,8.65
2019-03-04T12:06:45.397Z,8.81
2019-03-04T12:09:17.401Z,8.80
2019-03-04T12:11:52.377Z,8.92
2019-03-04T12:14:27.313Z,8.87
2019-03-04T12:17:02.503Z,9.04
2019-03-04T12:19:37.081Z,8.99
2019-03-04T12:22:09.161Z,9.16
2019-03-04T12:24:44.560Z,9.02
2019-03-04T12:27:16.679Z,9.08
2019-03-04T12:29:47.249Z,9.14
2019-03-04T12:32:36.815Z,9.11
2019-03-04T12:35:17.033Z,9.35
2019-03-04T12:37:47.830Z,9.30
2019-03-04T12:40:18.270Z,9.30
2019-03-04T12:42:49.622Z,9.35
2019-03-04T12:45:20.467Z,9.34
2019-03-04T12:47:51.774Z,9.31
2019-03-04T12:50:25.684Z,9.34
2019-03-04T12:52:56.760Z,9.31
2019-03-04T12:55:28.331Z,9.46
2019-03-04T12:57:58.782Z,9.49
2019-03-04T13:00:29.971Z,9.51
2019-03-04T13:03:01.374Z,9.69
2019-03-04T13:05:32.882Z,9.67
2019-03-04T13:08:04.322Z,9.83
2019-03-04T13:10:34.956Z,9.91
2019-03-04T13:13:06.329Z,9.91
2019-03-04T13:15:37.035Z,9.58
2019-03-04T13:18:07.851Z,9.45
2019-03-04T13:20:39.056Z,9.51
2019-03-04T13:23:10.051Z,9.68
2019-03-04T13:25:40.881Z,9.60
2019-03-04T13:28:12.016Z,9.70
2019-03-04T13:30:42.607Z,9.71
2019-03-04T13:33:16.233Z,9.91
2019-03-04T13:35:46.890Z,9.83
2019-03-04T13:38:18.335Z,9.98
2019-03-04T13:40:49.692Z,10.08
2019-03-04T13:43:21.348Z,10.23
2019-03-04T13:45:52.879Z,10.32
2019-03-04T13:48:23.964Z,10.50
2019-03-04T13:50:55.196Z,10.50
2019-03-04T13:53:26.745Z,10.57
2019-03-04T13:56:14.652Z,10.66
2019-03-04T13:58:46.062Z,10.73
2019-03-04T14:01:17.566Z,10.75
2019-03-04T14:03:48.603Z,10.81
2019-03-04T14:06:19.262Z,10.63
2019-03-04T14:08:51.073Z,10.78
2019-03-04T14:11:25.129Z,10.83
2019-03-04T14:13:57.283Z,11.20
2019-03-04T14:16:28.685Z,12.49
2019-03-04T14:19:00.196Z,13.79
2019-03-04T14:21:31.396Z,13.65
2019-03-04T14:24:07.577Z,14.46
2019-03-04T14:26:40.107Z,14.23
2019-03-04T14:29:11.961Z,13.22
2019-03-04T14:31:44.264Z,13.54
2019-03-04T14:34:16.513Z,12.87
2019-03-04T14:36:47.218Z,12.72
2019-03-04T14:39:18.551Z,12.81
2019-03-04T14:41:49.652Z,12.93
2019-03-04T14:44:21.474Z,12.87
2019-03-04T14:46:52.826Z,12.99
2019-03-04T14:49:24.482Z,12.93
2019-03-04T14:51:57.649Z,13.35
2019-03-04T14:54:28.291Z,12.95
2019-03-04T14:56:59.371Z,12.11
2019-03-04T14:59:30.438Z,11.89
2019-03-04T15:02:01.473Z,11.94
2019-03-04T15:04:33.409Z,11.96
2019-03-04T15:07:08.154Z,11.93
2019-03-04T15:09:48.918Z,11.86
2019-03-04T15:12:13.674Z,12.11
2019-03-04T15:14:45.307Z,12.32
2019-03-04T15:17:31.686Z,12.62
2019-03-04T15:20:14.471Z,13.09
2019-03-04T15:22:45.679Z,13.63
2019-03-04T15:25:21.667Z,13.22
2019-03-04T15:27:53.447Z,13.26
2019-03-04T15:30:24.281Z,13.31
2019-03-04T15:32:55.395Z,13.48
2019-03-04T15:35:29.818Z,13.94
2019-03-04T15:38:01.111Z,13.94
2019-03-04T15:40:46.320Z,14.09
2019-03-04T15:43:18.182Z,13.90
2019-03-04T15:45:51.280Z,13.95
2019-03-04T15:48:24.013Z,14.44
2019-03-04T15:50:55.833Z,13.79
2019-03-04T15:53:27.580Z,13.34
2019-03-04T15:55:58.605Z,13.43
2019-03-04T15:58:35.025Z,14.00
2019-03-04T16:01:15.987Z,13.01
2019-03-04T16:03:48.074Z,12.51
2019-03-04T16:06:19.616Z,12.48
2019-03-04T16:08:50.729Z,12.65
2019-03-04T16:11:39.912Z,12.60
2019-03-04T16:14:11.257Z,12.74
2019-03-04T16:16:42.291Z,11.80
2019-03-04T16:19:13.692Z,10.98
2019-03-04T16:21:47.517Z,10.58
2019-03-04T16:24:19.255Z,10.42
2019-03-04T16:26:51.194Z,10.06
2019-03-04T16:29:22.684Z,10.15
2019-03-04T16:31:54.265Z,9.94
2019-03-04T16:34:25.464Z,10.05
2019-03-04T16:36:56.191Z,9.89
2019-03-04T16:39:27.222Z,9.83
2019-03-04T16:41:58.840Z,9.72
2019-03-04T16:44:29.902Z,9.70
2019-03-04T16:47:26.205Z,9.70
2019-03-04T16:49:56.780Z,9.57
2019-03-04T16:52:31.125Z,9.51
2019-03-04T16:55:02.771Z,9.41
2019-03-04T16:57:34.050Z,9.32
2019-03-04T17:00:06.175Z,9.26
2019-03-04T17:02:37.524Z,9.09
2019-03-04T17:05:10.301Z,9.10
2019-03-04T17:07:41.429Z,8.95
2019-03-04T17:10:14.387Z,8.95
2019-03-04T17:12:45.176Z,8.98
2019-03-04T17:15:20.440Z,8.96
2019-03-04T17:17:52.551Z,9.01
2019-03-04T17:20:23.329Z,8.96
2019-03-04T17:22:55.354Z,8.83
2019-03-04T17:25:26.549Z,8.70
2019-03-04T17:27:58.205Z,8.68
2019-03-04T17:30:30.294Z,8.72
2019-03-04T17:33:01.195Z,8.83
2019-03-04T17:35:32.210Z,8.90
2019-03-04T17:38:03.931Z,8.89
2019-03-04T17:41:16.287Z,9.05
2019-03-04T17:43:47.352Z,9.13
2019-03-04T17:46:18.997Z,9.09
2019-03-04T17:48:50.114Z,9.13
2019-03-04T17:51:22.069Z,9.12
2019-03-04T17:53:53.193Z,9.20
2019-03-04T17:56:24.493Z,9.23
2019-03-04T17:58:56.116Z,9.17
2019-03-04T18:01:27.992Z,9.21
2019-03-04T18:03:59.313Z,9.14
2019-03-04T18:06:30.369Z,9.07
2019-03-04T18:09:02.017Z,8.87
2019-03-04T18:11:33.377Z,8.74
2019-03-04T18:14:14.686Z,8.65
2019-03-04T18:16:45.719Z,8.42
2019-03-04T18:19:17.132Z,8.16
2019-03-04T18:21:48.545Z,7.96
2019-03-04T18:24:19.334Z,7.80
2019-03-04T18:27:04.692Z,7.58
2019-03-04T18:30:04.228Z,7.43
2019-03-04T18:33:41.967Z,7.37
2019-03-04T18:36:50.306Z,7.34
2019-03-04T18:40:14.122Z,7.40
2019-03-04T18:43:25.934Z,7.41
2019-03-04T18:47:05.558Z,7.42
2019-03-04T18:49:36.916Z,7.29
2019-03-04T18:52:07.836Z,7.22
2019-03-04T18:54:39.553Z,7.13
2019-03-04T18:57:10.968Z,7.18
2019-03-04T18:59:43.008Z,7.20
2019-03-04T19:02:14.775Z,7.32
2019-03-04T19:04:45.832Z,7.37
2019-03-04T19:07:18.471Z,7.39
2019-03-04T19:09:49.822Z,7.38
2019-03-04T19:12:21.455Z,7.42
2019-03-04T19:14:52.513Z,7.47
2019-03-04T19:17:33.151Z,7.44
2019-03-04T19:19:56.671Z,7.47
2019-03-04T19:22:27.692Z,7.43
2019-03-04T19:24:59.045Z,7.39
2019-03-04T19:27:30.507Z,7.37
2019-03-04T19:30:02.279Z,7.36
2019-03-04T19:32:33.627Z,7.28
2019-03-04T19:35:05.105Z,7.31
2019-03-04T19:37:37.189Z,7.53
2019-03-04T19:40:08.481Z,7.91
2019-03-04T19:42:39.853Z,8.14
2019-03-04T19:45:14.555Z,8.19
2019-03-04T19:47:45.711Z,8.22
2019-03-04T19:50:17.558Z,8.17
2019-03-04T19:52:49.464Z,8.36
2019-03-04T19:55:20.658Z,8.46
2019-03-04T19:57:52.331Z,8.39
2019-03-04T20:00:25.043Z,8.44
2019-03-04T20:02:56.432Z,8.35
2019-03-04T20:05:27.803Z,8.25
2019-03-04T20:07:59.151Z,8.30
2019-03-04T20:10:31.905Z,8.25
2019-03-04T20:13:02.570Z,8.27
2019-03-04T20:15:33.594Z,8.15
2019-03-04T20:18:05.109Z,8.18
2019-03-04T20:20:37.098Z,8.10
2019-03-04T20:23:08.808Z,8.00
2019-03-04T20:25:40.637Z,7.90
2019-03-04T20:28:12.020Z,8.03
2019-03-04T20:30:43.409Z,8.24
2019-03-04T20:33:15.509Z,8.24
2019-03-04T20:35:47.051Z,8.33
2019-03-04T20:38:19.887Z,8.35
2019-03-04T20:40:51.024Z,8.32
2019-03-04T20:43:22.201Z,8.39
2019-03-04T20:45:53.453Z,8.51
2019-03-04T20:48:25.097Z,8.50
2019-03-04T20:50:55.726Z,8.62
2019-03-04T20:53:27.075Z,8.76
2019-03-04T20:55:58.114Z,8.87
2019-03-04T20:58:29.080Z,8.76
2019-03-04T21:01:00.413Z,8.12
2019-03-04T21:03:35.116Z,7.87
2019-03-04T21:06:06.362Z,7.10
2019-03-04T21:08:36.973Z,6.36
2019-03-04T21:11:08.096Z,5.85
2019-03-04T21:13:39.114Z,5.43
2019-03-04T21:16:10.868Z,5.23
2019-03-04T21:18:41.911Z,5.29
2019-03-04T21:21:13.794Z,5.23
2019-03-04T21:23:44.704Z,5.11
2019-03-04T21:26:30.057Z,5.12
2019-03-04T21:29:32.095Z,5.11
2019-03-04T21:32:40.547Z,5.03
2019-03-04T21:36:22.775Z,4.96
2019-03-04T21:38:56.489Z,4.85
2019-03-04T21:42:10.116Z,4.89
2019-03-04T21:45:28.159Z,4.94
2019-03-04T21:48:06.569Z,4.95
2019-03-04T21:50:56.564Z,4.99
2019-03-04T21:53:39.141Z,4.96
2019-03-04T21:57:10.628Z,4.99
2019-03-04T21:59:41.688Z,5.01
2019-03-04T22:03:08.433Z,5.06
2019-03-04T22:05:49.755Z,5.18
2019-03-04T22:08:15.038Z,5.21
2019-03-04T22:10:45.721Z,5.28
2019-03-04T22:13:17.894Z,5.37
2019-03-04T22:15:49.588Z,5.49
2019-03-04T22:18:20.265Z,5.52
2019-03-04T22:20:51.524Z,5.54
2019-03-04T22:23:22.610Z,5.54
2019-03-04T22:26:01.559Z,5.63
2019-03-04T22:28:26.583Z,5.55
2019-03-04T22:30:58.247Z,5.47
2019-03-04T22:33:29.657Z,5.45
2019-03-04T22:35:59.927Z,5.53
2019-03-04T22:38:31.028Z,5.41
2019-03-04T22:41:02.625Z,5.37
2019-03-04T22:43:34.356Z,5.34
2019-03-04T22:46:05.826Z,5.23
2019-03-04T22:48:36.779Z,5.22
2019-03-04T22:51:08.726Z,5.23
2019-03-04T22:53:40.344Z,5.22
2019-03-04T22:56:12.174Z,5.19
2019-03-04T22:59:07.180Z,5.14
2019-03-04T23:01:54.314Z,5.18
2019-03-04T23:05:08.536Z,5.13
2019-03-04T23:07:58.143Z,5.09
2019-03-04T23:10:37.755Z,5.13
2019-03-04T23:13:54.110Z,5.11
2019-03-04T23:16:29.225Z,5.13
2019-03-04T23:19:00.230Z,5.07
2019-03-04T23:21:31.164Z,5.01
2019-03-04T23:24:02.296Z,4.94
2019-03-04T23:26:32.968Z,4.97
2019-03-04T23:29:04.050Z,4.90
2019-03-04T23:31:35.461Z,4.90
2019-03-04T23:34:06.811Z,4.88
2019-03-04T23:36:37.521Z,4.86
2019-03-04T23:39:09.993Z,4.82
2019-03-04T23:41:41.348Z,4.81
2019-03-04T23:44:12.943Z,4.71
2019-03-04T23:46:44.014Z,4.70
2019-03-04T23:49:15.995Z,4.64
2019-03-04T23:51:47.236Z,4.63
2019-03-04T23:54:18.865Z,4.51
2019-03-04T23:56:49.194Z,4.47
2019-03-04T23:59:20.301Z,4.44
